createdAt,value
2018-06-01T00:00:21.949Z,93.00
2018-06-01T00:02:51.096Z,92.80
2018-06-01T00:05:19.481Z,92.80
2018-06-01T00:07:47.886Z,92.60
2018-06-01T00:10:16.261Z,92.60
2018-06-01T00:12:44.669Z,92.50
2018-06-01T00:15:13.813Z,92.30
2018-06-01T00:17:42.484Z,92.30
2018-06-01T00:20:10.864Z,92.30
2018-06-01T00:22:39.243Z,92.30
2018-06-01T00:25:07.670Z,92.40
2018-06-01T00:27:36.821Z,92.40
2018-06-01T00:30:05.233Z,92.40
2018-06-01T00:32:33.604Z,92.40
2018-06-01T00:35:03.520Z,92.30
2018-06-01T00:37:31.900Z,92.20
2018-06-01T00:40:00.277Z,92.30
2018-06-01T00:42:28.677Z,92.30
2018-06-01T00:44:57.817Z,92.40
2018-06-01T00:47:26.224Z,92.40
2018-06-01T00:49:54.605Z,92.20
2018-06-01T00:52:23.164Z,92.20
2018-06-01T00:55:09.365Z,92.20
2018-06-01T00:57:38.144Z,92.20
2018-06-01T01:00:06.595Z,92.10
2018-06-01T01:02:34.968Z,92.00
2018-06-01T01:05:04.300Z,91.70
2018-06-01T01:07:32.673Z,91.70
2018-06-01T01:10:01.073Z,91.50
2018-06-01T01:12:29.453Z,91.60
2018-06-01T01:14:58.223Z,91.40
2018-06-01T01:17:26.612Z,91.40
2018-06-01T01:19:55.000Z,91.00
2018-06-01T01:22:23.421Z,90.90
2018-06-01T01:24:52.556Z,91.00
2018-06-01T01:27:20.966Z,91.00
2018-06-01T01:29:50.108Z,91.10
2018-06-01T01:32:18.716Z,91.10
2018-06-01T01:34:47.097Z,91.00
2018-06-01T01:37:16.251Z,90.80
2018-06-01T01:39:45.413Z,90.80
2018-06-01T01:42:13.792Z,90.70
2018-06-01T01:44:42.200Z,90.90
2018-06-01T01:47:11.381Z,90.40
2018-06-01T01:49:39.953Z,90.40
2018-06-01T01:52:08.419Z,90.50
2018-06-01T01:54:36.800Z,90.30
2018-06-01T01:57:05.232Z,90.20
2018-06-01T01:59:33.617Z,90.30
2018-06-01T02:02:02.013Z,90.30
2018-06-01T02:04:30.392Z,90.30
2018-06-01T02:06:58.809Z,90.40
2018-06-01T02:09:27.197Z,90.50
2018-06-01T02:11:55.641Z,90.70
2018-06-01T02:14:24.056Z,91.10
2018-06-01T02:16:52.443Z,90.90
2018-06-01T02:19:21.617Z,91.20
2018-06-01T02:21:50.004Z,91.20
2018-06-01T02:24:18.663Z,91.20
2018-06-01T02:26:47.042Z,91.30
2018-06-01T02:29:15.421Z,91.30
2018-06-01T02:31:43.834Z,91.50
2018-06-01T02:34:13.611Z,91.90
2018-06-01T02:36:42.016Z,91.60
2018-06-01T02:39:10.401Z,91.70
2018-06-01T02:41:38.815Z,91.60
2018-06-01T02:44:07.209Z,91.70
2018-06-01T02:46:35.580Z,91.60
2018-06-01T02:49:03.986Z,91.60
2018-06-01T02:51:32.373Z,91.70
2018-06-01T02:54:00.781Z,91.70
2018-06-01T02:56:29.925Z,92.00
2018-06-01T02:58:58.500Z,91.90
2018-06-01T03:01:27.627Z,91.90
2018-06-01T03:03:56.005Z,91.80
2018-06-01T03:06:24.421Z,91.90
2018-06-01T03:08:52.822Z,91.90
2018-06-01T03:11:21.220Z,91.90
2018-06-01T03:13:49.712Z,92.00
2018-06-01T03:16:18.132Z,91.90
2018-06-01T03:18:47.272Z,91.70
2018-06-01T03:21:15.648Z,92.00
2018-06-01T03:23:44.037Z,91.60
2018-06-01T03:26:12.445Z,91.70
2018-06-01T03:28:40.836Z,91.80
2018-06-01T03:31:09.209Z,91.80
2018-06-01T03:33:37.752Z,92.20
2018-06-01T03:36:06.152Z,92.00
2018-06-01T03:38:34.552Z,92.00
2018-06-01T03:41:02.995Z,91.90
2018-06-01T03:43:31.385Z,92.10
2018-06-01T03:45:59.789Z,91.80
2018-06-01T03:48:28.185Z,91.80
2018-06-01T03:50:57.538Z,91.80
2018-06-01T03:53:25.971Z,91.80
2018-06-01T03:55:54.352Z,91.60
2018-06-01T03:58:22.764Z,91.70
2018-06-01T04:00:51.164Z,91.70
2018-06-01T04:03:19.565Z,91.60
2018-06-01T04:05:47.947Z,91.50
2018-06-01T04:08:17.144Z,91.40
2018-06-01T04:10:46.296Z,91.30
2018-06-01T04:13:14.672Z,91.20
2018-06-01T04:15:43.284Z,91.20
2018-06-01T04:18:11.669Z,91.10
2018-06-01T04:20:40.076Z,91.10
2018-06-01T04:23:09.226Z,91.10
2018-06-01T04:25:37.893Z,91.10
2018-06-01T04:28:06.284Z,91.00
2018-06-01T04:30:34.675Z,90.90
2018-06-01T04:33:03.077Z,90.90
2018-06-01T04:35:32.224Z,90.70
2018-06-01T04:38:00.627Z,90.70
2018-06-01T04:40:29.051Z,90.60
2018-06-01T04:42:57.452Z,90.40
2018-06-01T04:45:25.823Z,90.10
2018-06-01T04:47:54.200Z,90.20
2018-06-01T04:50:22.604Z,90.20
2018-06-01T04:52:50.997Z,89.80
2018-06-01T04:55:19.392Z,90.00
2018-06-01T04:57:47.772Z,89.90
2018-06-01T05:00:16.373Z,89.80
2018-06-01T05:02:45.521Z,88.80
2018-06-01T05:05:13.902Z,88.80
2018-06-01T05:07:42.308Z,88.80
2018-06-01T05:10:10.694Z,89.10
2018-06-01T05:12:39.096Z,88.90
2018-06-01T05:15:07.480Z,88.90
2018-06-01T05:17:36.088Z,89.30
2018-06-01T05:20:04.476Z,88.80
2018-06-01T05:22:32.855Z,88.80
2018-06-01T05:25:01.259Z,88.60
2018-06-01T05:27:29.641Z,88.90
2018-06-01T05:29:58.049Z,88.60
2018-06-01T05:32:26.439Z,88.30
2018-06-01T05:34:54.856Z,88.70
2018-06-01T05:37:23.241Z,88.60
2018-06-01T05:39:51.617Z,87.60
2018-06-01T05:42:20.005Z,88.20
2018-06-01T05:44:48.388Z,87.60
2018-06-01T05:47:16.849Z,87.50
2018-06-01T05:49:45.200Z,87.80
2018-06-01T05:52:13.848Z,87.60
2018-06-01T05:54:43.014Z,87.30
2018-06-01T05:57:11.395Z,87.00
2018-06-01T05:59:40.546Z,87.10
2018-06-01T06:02:08.916Z,87.60
2018-06-01T06:04:38.094Z,87.90
2018-06-01T06:07:07.252Z,87.90
2018-06-01T06:09:35.760Z,87.90
2018-06-01T06:12:04.145Z,87.90
2018-06-01T06:14:32.524Z,87.60
2018-06-01T06:17:00.929Z,87.30
2018-06-01T06:19:29.569Z,86.40
2018-06-01T06:21:57.984Z,86.80
2018-06-01T06:24:28.635Z,86.20
2018-06-01T06:26:57.066Z,86.10
2018-06-01T06:29:25.442Z,85.60
2018-06-01T06:31:53.823Z,85.50
2018-06-01T06:34:22.216Z,85.40
2018-06-01T06:36:51.358Z,85.50
2018-06-01T06:39:19.758Z,85.50
2018-06-01T06:41:48.130Z,86.90
2018-06-01T06:44:16.537Z,87.40
2018-06-01T06:46:46.419Z,87.00
2018-06-01T06:49:14.843Z,87.00
2018-06-01T06:51:44.001Z,87.20
2018-06-01T06:54:12.393Z,86.50
2018-06-01T06:56:40.801Z,87.00
2018-06-01T06:59:09.937Z,88.40
2018-06-01T07:01:38.410Z,88.30
2018-06-01T07:04:06.771Z,88.50
2018-06-01T07:06:35.619Z,89.10
2018-06-01T07:09:04.208Z,90.30
2018-06-01T07:11:32.585Z,90.40
2018-06-01T07:14:00.993Z,90.50
2018-06-01T07:16:30.136Z,90.90
2018-06-01T07:18:58.568Z,90.90
2018-06-01T07:21:27.729Z,90.20
2018-06-01T07:23:56.145Z,90.20
2018-06-01T07:26:25.288Z,90.00
2018-06-01T07:28:53.685Z,90.00
2018-06-01T07:31:22.104Z,89.40
2018-06-01T07:33:51.260Z,88.20
2018-06-01T07:36:19.673Z,88.10
2018-06-01T07:38:48.865Z,87.90
2018-06-01T07:41:17.245Z,87.80
2018-06-01T07:43:46.380Z,86.60
2018-06-01T07:46:18.418Z,86.60
2018-06-01T07:48:47.117Z,86.00
2018-06-01T07:51:15.533Z,84.50
2018-06-01T07:53:50.021Z,84.00
2018-06-01T07:56:18.725Z,84.00
2018-06-01T07:58:47.125Z,81.30
2018-06-01T08:01:15.502Z,81.50
2018-06-01T08:03:44.585Z,80.30
2018-06-01T08:06:13.769Z,79.70
2018-06-01T08:08:42.211Z,79.60
2018-06-01T08:11:11.590Z,74.50
2018-06-01T08:13:40.350Z,74.50
2018-06-01T08:16:08.931Z,74.00
2018-06-01T08:18:37.345Z,74.30
2018-06-01T08:21:06.701Z,72.40
2018-06-01T08:23:35.065Z,71.70
2018-06-01T08:26:03.513Z,71.90
2018-06-01T08:28:32.852Z,72.60
2018-06-01T08:31:02.620Z,72.60
2018-06-01T08:33:31.805Z,71.60
2018-06-01T08:36:00.188Z,70.80
2018-06-01T08:38:29.549Z,70.90
2018-06-01T08:40:58.654Z,70.40
2018-06-01T08:43:51.953Z,71.70
2018-06-01T08:46:30.730Z,69.70
2018-06-01T08:48:59.923Z,69.60
2018-06-01T08:51:28.289Z,67.90
2018-06-01T08:53:56.660Z,67.30
2018-06-01T08:56:25.052Z,66.90
2018-06-01T08:58:53.470Z,66.60
2018-06-01T09:01:21.868Z,64.00
2018-06-01T09:03:51.007Z,66.50
2018-06-01T09:06:21.056Z,65.80
2018-06-01T09:08:49.624Z,65.30
2018-06-01T09:11:19.634Z,65.30
2018-06-01T09:13:50.334Z,63.90
2018-06-01T09:16:18.707Z,64.30
2018-06-01T09:18:47.873Z,64.80
2018-06-01T09:21:16.239Z,64.80
2018-06-01T09:23:44.905Z,63.10
2018-06-01T09:26:13.272Z,59.00
2018-06-01T09:28:41.644Z,59.00
2018-06-01T09:31:10.048Z,60.80
2018-06-01T09:33:38.417Z,61.10
2018-06-01T09:36:06.816Z,59.70
2018-06-01T09:38:35.180Z,56.90
2018-06-01T09:41:03.592Z,55.50
2018-06-01T09:43:31.961Z,56.10
2018-06-01T09:46:00.332Z,55.70
2018-06-01T09:48:28.733Z,54.90
2018-06-01T09:50:57.097Z,51.50
2018-06-01T09:53:25.489Z,52.30
2018-06-01T09:55:53.864Z,52.50
2018-06-01T09:58:22.287Z,50.90
2018-06-01T10:00:56.286Z,49.50
2018-06-01T10:03:24.890Z,49.50
2018-06-01T10:05:53.278Z,49.00
2018-06-01T10:08:21.644Z,50.50
2018-06-01T10:10:50.047Z,51.70
2018-06-01T10:13:18.421Z,53.20
2018-06-01T10:15:46.832Z,53.70
2018-06-01T10:18:15.253Z,53.90
2018-06-01T10:20:43.649Z,54.40
2018-06-01T10:23:12.041Z,53.50
2018-06-01T10:25:40.445Z,54.10
2018-06-01T10:28:08.820Z,54.60
2018-06-01T10:30:37.189Z,54.60
2018-06-01T10:33:05.591Z,53.20
2018-06-01T10:35:34.733Z,53.90
2018-06-01T10:38:03.125Z,53.90
2018-06-01T10:40:31.498Z,53.10
2018-06-01T10:43:00.388Z,51.10
2018-06-01T10:45:28.801Z,49.90
2018-06-01T10:47:57.202Z,49.60
2018-06-01T10:50:26.621Z,50.70
2018-06-01T10:52:55.041Z,50.60
2018-06-01T10:55:24.712Z,50.40
2018-06-01T10:57:53.713Z,51.10
2018-06-01T11:00:22.116Z,52.60
2018-06-01T11:02:55.374Z,52.80
2018-06-01T11:05:27.153Z,53.90
2018-06-01T11:07:58.357Z,54.40
2018-06-01T11:10:28.995Z,53.20
2018-06-01T11:12:58.429Z,53.00
2018-06-01T11:15:28.472Z,52.10
2018-06-01T11:17:58.740Z,51.00
2018-06-01T11:20:27.784Z,50.40
2018-06-01T11:22:58.121Z,50.40
2018-06-01T11:25:30.303Z,50.80
2018-06-01T11:28:05.205Z,50.00
2018-06-01T11:30:37.529Z,49.20
2018-06-01T11:33:08.158Z,49.20
2018-06-01T11:35:38.053Z,48.50
2018-06-01T11:38:08.126Z,46.90
2018-06-01T11:40:38.039Z,47.90
2018-06-01T11:43:06.826Z,47.30
2018-06-01T11:45:35.217Z,47.80
2018-06-01T11:48:04.095Z,44.60
2018-06-01T11:50:32.519Z,45.40
2018-06-01T11:53:04.712Z,44.00
2018-06-01T11:55:33.089Z,44.00
2018-06-01T11:58:02.043Z,44.10
2018-06-01T12:00:31.537Z,43.30
2018-06-01T12:03:00.228Z,43.20
2018-06-01T12:05:29.926Z,43.60
2018-06-01T12:07:58.445Z,43.60
2018-06-01T12:10:28.084Z,41.50
2018-06-01T12:12:56.888Z,41.40
2018-06-01T12:15:25.520Z,42.20
2018-06-01T12:17:55.036Z,43.90
2018-06-01T12:20:25.357Z,43.90
2018-06-01T12:22:54.525Z,45.10
2018-06-01T12:25:22.896Z,45.00
2018-06-01T12:27:51.531Z,43.80
2018-06-01T12:30:21.749Z,43.30
2018-06-01T12:32:50.726Z,44.50
2018-06-01T12:35:19.129Z,42.30
2018-06-01T12:37:52.668Z,42.90
2018-06-01T12:40:27.839Z,42.00
2018-06-01T12:42:57.183Z,45.20
2018-06-01T12:45:30.196Z,45.10
2018-06-01T12:47:59.161Z,44.60
2018-06-01T12:50:27.533Z,45.40
2018-06-01T12:52:56.108Z,44.30
2018-06-01T12:55:25.020Z,44.10
2018-06-01T12:57:54.830Z,43.40
2018-06-01T13:00:25.069Z,43.30
2018-06-01T13:02:55.171Z,43.20
2018-06-01T13:05:25.008Z,42.50
2018-06-01T13:07:54.580Z,42.50
2018-06-01T13:10:22.959Z,41.10
2018-06-01T13:12:51.360Z,39.00
2018-06-01T13:15:19.766Z,39.60
2018-06-01T13:17:48.920Z,40.90
2018-06-01T13:20:17.296Z,40.20
2018-06-01T13:22:45.717Z,41.60
2018-06-01T13:25:14.093Z,41.60
2018-06-01T13:27:42.471Z,40.70
2018-06-01T13:30:11.652Z,41.30
2018-06-01T13:32:40.026Z,41.30
2018-06-01T13:35:08.410Z,41.60
2018-06-01T13:37:36.795Z,41.00
2018-06-01T13:40:05.541Z,38.50
2018-06-01T13:42:33.912Z,38.60
2018-06-01T13:45:02.289Z,36.90
2018-06-01T13:47:30.694Z,36.90
2018-06-01T13:50:05.427Z,35.60
2018-06-01T13:52:35.065Z,36.90
2018-06-01T13:55:03.441Z,37.00
2018-06-01T13:57:32.180Z,38.30
2018-06-01T14:00:00.553Z,37.40
2018-06-01T14:02:28.921Z,37.60
2018-06-01T14:04:57.427Z,39.30
2018-06-01T14:07:25.805Z,40.70
2018-06-01T14:09:54.200Z,42.00
2018-06-01T14:12:22.577Z,42.70
2018-06-01T14:14:50.972Z,41.20
2018-06-01T14:17:22.657Z,42.80
2018-06-01T14:19:58.827Z,43.30
2018-06-01T14:22:30.268Z,43.20
2018-06-01T14:24:59.116Z,43.50
2018-06-01T14:27:27.888Z,44.60
2018-06-01T14:29:56.293Z,45.40
2018-06-01T14:32:28.816Z,45.20
2018-06-01T14:35:01.141Z,46.00
2018-06-01T14:37:32.358Z,46.00
2018-06-01T14:40:00.976Z,46.20
2018-06-01T14:42:35.524Z,46.40
2018-06-01T14:45:04.169Z,46.40
2018-06-01T14:47:32.855Z,47.00
2018-06-01T14:50:02.051Z,48.70
2018-06-01T14:52:30.716Z,48.80
2018-06-01T14:54:59.932Z,47.80
2018-06-01T14:57:28.306Z,47.80
2018-06-01T14:59:56.706Z,48.00
2018-06-01T15:02:25.143Z,48.20
2018-06-01T15:04:53.517Z,47.30
2018-06-01T15:07:21.914Z,47.90
2018-06-01T15:09:50.306Z,47.30
2018-06-01T15:12:18.704Z,48.00
2018-06-01T15:14:47.841Z,48.60
2018-06-01T15:17:16.592Z,48.60
2018-06-01T15:19:45.727Z,49.10
2018-06-01T15:22:14.104Z,49.00
2018-06-01T15:24:43.422Z,47.90
2018-06-01T15:27:11.817Z,47.80
2018-06-01T15:29:40.265Z,49.00
2018-06-01T15:32:09.305Z,50.30
2018-06-01T15:34:37.793Z,49.90
2018-06-01T15:37:06.360Z,49.50
2018-06-01T15:39:34.913Z,49.30
2018-06-01T15:42:03.285Z,48.80
2018-06-01T15:44:31.670Z,48.80
2018-06-01T15:47:00.084Z,48.00
2018-06-01T15:49:29.876Z,50.20
2018-06-01T15:51:58.272Z,51.30
2018-06-01T15:54:26.640Z,51.40
2018-06-01T15:56:55.292Z,51.70
2018-06-01T15:59:24.399Z,49.30
2018-06-01T16:01:53.882Z,48.80
2018-06-01T16:04:22.303Z,48.70
2018-06-01T16:06:50.699Z,50.20
2018-06-01T16:09:19.098Z,48.90
2018-06-01T16:11:48.244Z,50.50
2018-06-01T16:14:16.672Z,50.40
2018-06-01T16:16:45.965Z,49.50
2018-06-01T16:19:15.117Z,51.40
2018-06-01T16:21:43.544Z,51.30
2018-06-01T16:24:12.697Z,51.50
2018-06-01T16:26:41.168Z,51.50
2018-06-01T16:29:11.720Z,51.40
2018-06-01T16:31:40.358Z,51.70
2018-06-01T16:34:08.738Z,51.30
2018-06-01T16:36:37.184Z,51.60
2018-06-01T16:39:06.424Z,51.50
2018-06-01T16:41:34.816Z,51.50
2018-06-01T16:44:03.225Z,51.60
2018-06-01T16:46:31.596Z,51.50
2018-06-01T16:49:00.005Z,52.20
2018-06-01T16:51:29.146Z,53.00
2018-06-01T16:53:57.527Z,53.00
2018-06-01T16:56:25.939Z,53.80
2018-06-01T16:58:54.318Z,54.00
2018-06-01T17:01:23.073Z,53.80
2018-06-01T17:03:51.483Z,54.00
2018-06-01T17:06:20.675Z,54.70
2018-06-01T17:08:49.063Z,54.70
2018-06-01T17:11:17.456Z,54.40
2018-06-01T17:13:46.618Z,54.50
2018-06-01T17:16:15.016Z,54.50
2018-06-01T17:18:43.421Z,53.50
2018-06-01T17:21:12.716Z,53.80
2018-06-01T17:23:42.133Z,54.50
2018-06-01T17:26:10.504Z,54.50
2018-06-01T17:28:39.017Z,55.10
2018-06-01T17:31:08.150Z,55.20
2018-06-01T17:33:38.571Z,55.50
2018-06-01T17:36:07.108Z,56.10
2018-06-01T17:38:36.185Z,57.10
2018-06-01T17:41:04.606Z,57.20
2018-06-01T17:43:32.995Z,56.60
2018-06-01T17:46:01.833Z,56.30
2018-06-01T17:48:30.269Z,56.30
2018-06-01T17:50:58.642Z,56.50
2018-06-01T17:53:27.207Z,57.20
2018-06-01T17:55:55.620Z,57.00
2018-06-01T17:58:25.701Z,57.80
2018-06-01T18:00:54.072Z,57.70
2018-06-01T18:03:23.446Z,58.00
2018-06-01T18:05:51.901Z,58.40
2018-06-01T18:08:20.273Z,59.00
2018-06-01T18:10:48.672Z,60.40
2018-06-01T18:13:17.813Z,59.80
2018-06-01T18:15:46.231Z,59.70
2018-06-01T18:18:14.611Z,60.00
2018-06-01T18:20:43.029Z,60.40
2018-06-01T18:23:11.432Z,61.30
2018-06-01T18:25:43.166Z,60.80
2018-06-01T18:28:11.773Z,60.40
2018-06-01T18:30:40.150Z,59.70
2018-06-01T18:33:08.545Z,59.50
2018-06-01T18:35:36.928Z,60.00
2018-06-01T18:38:05.328Z,61.80
2018-06-01T18:40:34.468Z,62.00
2018-06-01T18:43:02.986Z,62.00
2018-06-01T18:45:31.410Z,62.70
2018-06-01T18:47:59.782Z,62.90
2018-06-01T18:50:28.961Z,63.40
2018-06-01T18:52:57.325Z,63.40
2018-06-01T18:55:26.509Z,64.00
2018-06-01T18:57:54.885Z,64.00
2018-06-01T19:00:23.442Z,64.10
2018-06-01T19:02:51.880Z,64.40
2018-06-01T19:05:21.030Z,64.80
2018-06-01T19:07:49.447Z,64.80
2018-06-01T19:10:25.211Z,64.90
2018-06-01T19:12:55.455Z,65.10
2018-06-01T19:15:24.900Z,65.90
2018-06-01T19:17:55.053Z,66.70
2018-06-01T19:20:25.337Z,68.60
2018-06-01T19:22:55.562Z,68.40
2018-06-01T19:25:25.408Z,69.30
2018-06-01T19:27:56.248Z,69.30
2018-06-01T19:30:25.868Z,69.50
2018-06-01T19:32:55.854Z,70.50
2018-06-01T19:35:25.821Z,70.80
2018-06-01T19:37:54.572Z,70.80
2018-06-01T19:40:25.057Z,70.60
2018-06-01T19:42:54.949Z,70.50
2018-06-01T19:45:24.853Z,70.30
2018-06-01T19:47:55.213Z,70.50
2018-06-01T19:50:25.225Z,71.50
2018-06-01T19:52:55.046Z,71.50
2018-06-01T19:55:25.759Z,71.30
2018-06-01T19:57:55.329Z,71.70
2018-06-01T20:00:25.292Z,72.60
2018-06-01T20:02:55.208Z,72.60
2018-06-01T20:05:23.686Z,73.20
2018-06-01T20:07:53.364Z,73.00
2018-06-01T20:10:21.806Z,72.80
2018-06-01T20:12:51.686Z,73.60
2018-06-01T20:15:21.796Z,74.10
2018-06-01T20:17:50.969Z,73.90
2018-06-01T20:20:19.976Z,72.90
2018-06-01T20:22:48.992Z,72.20
2018-06-01T20:25:18.628Z,73.80
2018-06-01T20:27:48.787Z,73.80
2018-06-01T20:30:19.549Z,74.60
2018-06-01T20:32:48.645Z,74.60
2018-06-01T20:35:18.355Z,74.40
2018-06-01T20:37:47.141Z,74.40
2018-06-01T20:40:15.826Z,74.20
2018-06-01T20:42:46.123Z,74.40
2018-06-01T20:45:16.424Z,75.00
2018-06-01T20:47:47.984Z,76.00
2018-06-01T20:50:17.580Z,76.50
2018-06-01T20:52:47.480Z,77.50
2018-06-01T20:55:17.065Z,77.40
2018-06-01T20:57:47.522Z,77.20
2018-06-01T21:00:17.430Z,77.90
2018-06-01T21:02:46.908Z,77.80
2018-06-01T21:05:17.040Z,78.20
2018-06-01T21:07:46.961Z,77.70
2018-06-01T21:10:16.797Z,78.20
2018-06-01T21:12:49.116Z,78.00
2018-06-01T21:15:19.739Z,78.60
2018-06-01T21:17:52.361Z,79.10
2018-06-01T21:20:26.232Z,79.20
2018-06-01T21:22:56.957Z,79.60
2018-06-01T21:25:26.973Z,79.50
2018-06-01T21:27:57.682Z,79.60
2018-06-01T21:30:28.201Z,79.70
2018-06-01T21:32:57.800Z,80.30
2018-06-01T21:35:28.241Z,81.00
2018-06-01T21:37:57.720Z,81.00
2018-06-01T21:40:27.846Z,81.70
2018-06-01T21:42:57.637Z,81.80
2018-06-01T21:45:27.781Z,81.70
2018-06-01T21:47:57.028Z,81.80
2018-06-01T21:50:27.541Z,82.00
2018-06-01T21:52:58.192Z,82.10
2018-06-01T21:55:30.622Z,82.70
2018-06-01T21:58:02.308Z,82.90
2018-06-01T22:00:31.257Z,82.60
2018-06-01T22:02:59.929Z,82.50
2018-06-01T22:05:29.092Z,84.10
2018-06-01T22:07:57.586Z,83.20
2018-06-01T22:10:25.976Z,83.10
2018-06-01T22:12:54.477Z,82.60
2018-06-01T22:15:26.533Z,81.80
2018-06-01T22:17:57.903Z,81.70
2018-06-01T22:20:26.317Z,81.90
2018-06-01T22:22:54.789Z,81.60
2018-06-01T22:25:23.594Z,81.40
2018-06-01T22:27:52.378Z,81.20
2018-06-01T22:30:21.233Z,81.00
2018-06-01T22:32:49.960Z,81.10
2018-06-01T22:35:18.541Z,80.80
2018-06-01T22:37:46.936Z,80.70
2018-06-01T22:40:15.411Z,80.40
2018-06-01T22:42:44.173Z,80.50
2018-06-01T22:45:12.971Z,80.50
2018-06-01T22:47:41.728Z,80.60
2018-06-01T22:50:10.125Z,80.60
2018-06-01T22:52:38.922Z,81.00
2018-06-01T22:55:07.296Z,81.00
2018-06-01T22:57:35.668Z,81.30
2018-06-01T23:00:04.467Z,81.70
2018-06-01T23:02:32.845Z,81.80
2018-06-01T23:05:01.250Z,82.30
2018-06-01T23:07:30.554Z,82.50
2018-06-01T23:09:59.303Z,82.70
2018-06-01T23:12:27.681Z,82.70
2018-06-01T23:14:56.068Z,82.80
2018-06-01T23:17:24.463Z,83.30
2018-06-01T23:19:52.910Z,83.40
2018-06-01T23:22:21.269Z,83.60
2018-06-01T23:24:49.640Z,83.70
2018-06-01T23:27:19.231Z,84.00
2018-06-01T23:29:48.368Z,84.50
2018-06-01T23:32:16.024Z,84.40
2018-06-01T23:34:44.428Z,84.40
2018-06-01T23:37:12.811Z,83.60
2018-06-01T23:39:41.215Z,84.10
2018-06-01T23:42:09.585Z,84.30
2018-06-01T23:44:38.237Z,84.70
2018-06-01T23:47:06.614Z,84.30
2018-06-01T23:49:34.984Z,84.80
2018-06-01T23:52:03.385Z,85.10
2018-06-01T23:54:31.758Z,86.10
2018-06-01T23:57:00.165Z,85.60
2018-06-01T23:59:29.329Z,85.50
